Погода Шнаровкана неделю

Могилёвская область, Белоруссия

24 - 30 мая
  • 24мая
    Сегодня
    +9°
    +22°
    Ясно и безоблачно
    ВремяПогодаТемператураВлажностьДавлениеВетер, м/сВероятность осадков
    00:00Ясно и безоблачно+15°C56 %757 мм4.3 м/с2 %
    03:00Ясно и безоблачно+12°C61 %758 мм4.1 м/с2 %
    06:00Ясно и безоблачно+11°C62 %759 мм4.4 м/с2 %
    09:00Ясно и безоблачно+16°C58 %759 мм4.8 м/с2 %
    12:00Ясно и безоблачно+20°C46 %759 мм5.1 м/с2 %
    15:00Ясно и безоблачно+22°C41 %759 мм4.9 м/с2 %
    18:00Ясно и безоблачно+21°C42 %758 мм4.5 м/с2 %
    21:00Ясно и безоблачно+17°C56 %758 мм3.4 м/с2 %
  • 25мая
    Суббота
    +10°
    +24°
    Ясно и безоблачно
    ВремяПогодаТемператураВлажностьДавлениеВетер, м/сВероятность осадков
    00:00Ясно и безоблачно+13°C59 %758 мм3.6 м/с2 %
    03:00Ясно и безоблачно+11°C63 %758 мм3.2 м/с2 %
    06:00Ясно и безоблачно+11°C69 %758 мм2.9 м/с2 %
    09:00Ясно и безоблачно+17°C61 %758 мм2.7 м/с2 %
    12:00Ясно и безоблачно+22°C51 %758 мм2.6 м/с2 %
    15:00Ясно и безоблачно+23°C41 %757 мм2.9 м/с2 %
    18:00Ясно и безоблачно+23°C41 %756 мм2.1 м/с2 %
    21:00Небольшая облачность+17°C66 %756 мм2.4 м/с2 %
  • 26мая
    Воскресенье
    +11°
    +24°
    Практически безоблачно
    ВремяПогодаТемператураВлажностьДавлениеВетер, м/сВероятность осадков
    00:00Ясно и безоблачно+13°C73 %756 мм2.3 м/с2 %
    03:00Ясно и безоблачно+11°C83 %756 мм2.7 м/с2 %
    06:00Ясно и безоблачно+12°C80 %756 мм1.1 м/с2 %
    09:00Облачно с прояснениями+18°C56 %757 мм0.6 м/с2 %
    12:00Облачно с прояснениями+22°C40 %757 мм0.9 м/с2 %
    15:00Практически безоблачно+23°C38 %756 мм1.5 м/с2 %
    18:00Ясно и безоблачно+24°C35 %755 мм1.3 м/с2 %
    21:00Практически безоблачно+18°C62 %755 мм2.3 м/с2 %
  • 27мая
    Понедельник
    +13°
    +25°
    Небольшая облачность и лёгкий дождик
    ВремяПогодаТемператураВлажностьДавлениеВетер, м/сВероятность осадков
    00:00Ясно и безоблачно+14°C75 %755 мм2.1 м/с2 %
    03:00Ясно и безоблачно+13°C80 %756 мм2.6 м/с2 %
    06:00Ясно и безоблачно+13°C82 %756 мм1.6 м/с2 %
    09:00Ясно и безоблачно+20°C65 %756 мм1.4 м/с2 %
    12:00Практически безоблачно+23°C43 %756 мм2.0 м/с6 %
    15:00Небольшая облачность и лёгкий дождик+24°C44 %756 мм1.9 м/с12 %
    18:00Ясно и безоблачно+24°C45 %755 мм1.5 м/с27 %
    21:00Ясно и безоблачно+20°C70 %755 мм2.8 м/с5 %
  • 28мая
    Вторник
    +14°
    +25°
    Практически безоблачно
    ВремяПогодаТемператураВлажностьДавлениеВетер, м/сВероятность осадков
    00:00Ясно и безоблачно+17°C79 %755 мм2.1 м/с2 %
    03:00Ясно и безоблачно+14°C90 %755 мм2.3 м/с2 %
    06:00Ясно и безоблачно+13°C86 %755 мм2.1 м/с2 %
    09:00Ясно и безоблачно+20°C65 %755 мм1.2 м/с2 %
    12:00Практически безоблачно+24°C48 %755 мм2.2 м/с7 %
    15:00Практически безоблачно+25°C50 %754 мм2.0 м/с7 %
    18:00Облачно с прояснениями+24°C52 %753 мм2.4 м/с12 %
    21:00Практически безоблачно+19°C71 %753 мм1.4 м/с3 %
Мы используем cookies
Соглашаюсь